createdAt,value
2023-02-02T00:00:01.131Z,97449.97
2023-02-02T00:05:46.409Z,97462.31
2023-02-02T00:11:07.224Z,97458.84
2023-02-02T00:16:31.116Z,97464.78
2023-02-02T00:21:52.770Z,97469.53
2023-02-02T00:27:14.029Z,97468.47
2023-02-02T00:32:35.062Z,97459.97
2023-02-02T00:37:56.061Z,97465.44
2023-02-02T00:43:17.400Z,97461.22
2023-02-02T00:48:38.234Z,97479.06
2023-02-02T00:53:59.145Z,97478.34
2023-02-02T00:59:23.127Z,97491.78
2023-02-02T01:04:43.950Z,97487.94
2023-02-02T01:10:05.786Z,97483.16
2023-02-02T01:15:27.107Z,97493.66
2023-02-02T01:20:48.080Z,97472.13
2023-02-02T01:26:10.383Z,97477.25
2023-02-02T01:31:31.610Z,97477.81
2023-02-02T01:36:52.348Z,97472.88
2023-02-02T01:42:15.817Z,97478.38
2023-02-02T01:47:44.348Z,97475.63
2023-02-02T01:53:06.218Z,97481.13
2023-02-02T01:58:29.380Z,97472.44
2023-02-02T02:03:50.410Z,97475.19
2023-02-02T02:09:11.247Z,97483.97
2023-02-02T02:14:51.140Z,97471.69
2023-02-02T02:20:56.126Z,97481.81
2023-02-02T02:26:38.312Z,97487.50
2023-02-02T02:32:07.204Z,97472.63
2023-02-02T02:37:44.644Z,97476.69
2023-02-02T02:43:27.834Z,97470.66
2023-02-02T02:48:51.997Z,97475.44
2023-02-02T02:54:29.623Z,97475.44
2023-02-02T03:00:01.498Z,97474.66
2023-02-02T03:05:54.730Z,97470.22
2023-02-02T03:11:15.632Z,97457.69
2023-02-02T03:16:39.419Z,97451.41
2023-02-02T03:22:00.458Z,97460.94
2023-02-02T03:27:21.363Z,97472.66
2023-02-02T03:32:42.293Z,97465.63
2023-02-02T03:38:04.046Z,97471.66
2023-02-02T03:43:24.913Z,97478.25
2023-02-02T03:48:45.479Z,97467.25
2023-02-02T03:54:06.307Z,97479.53
2023-02-02T03:59:27.381Z,97481.69
2023-02-02T04:04:48.196Z,97487.25
2023-02-02T04:10:09.825Z,97486.59
2023-02-02T04:15:30.719Z,97497.16
2023-02-02T04:20:56.719Z,97480.13
2023-02-02T04:26:17.690Z,97486.75
2023-02-02T04:31:38.421Z,97482.31
2023-02-02T04:36:59.351Z,97495.03
2023-02-02T04:42:20.403Z,97516.41
2023-02-02T04:47:41.406Z,97530.94
2023-02-02T04:53:02.066Z,97531.69
2023-02-02T04:58:23.116Z,97530.03
2023-02-02T05:03:44.226Z,97528.41
2023-02-02T05:09:05.229Z,97551.94
2023-02-02T05:14:26.311Z,97554.91
2023-02-02T05:19:47.410Z,97551.41
2023-02-02T05:25:08.650Z,97553.44
2023-02-02T05:30:29.998Z,97557.50
2023-02-02T05:35:51.929Z,97559.88
2023-02-02T05:41:12.741Z,97581.41
2023-02-02T05:46:33.692Z,97585.81
2023-02-02T05:51:56.198Z,97590.25
2023-02-02T05:57:16.852Z,97591.31
2023-02-02T06:02:37.804Z,97599.78
2023-02-02T06:07:58.540Z,97606.22
2023-02-02T06:13:19.642Z,97611.19
2023-02-02T06:18:40.381Z,97616.56
2023-02-02T06:24:02.245Z,97625.59
2023-02-02T06:29:23.419Z,97617.66
2023-02-02T06:34:44.713Z,97623.56
2023-02-02T06:40:07.567Z,97627.97
2023-02-02T06:45:28.889Z,97655.75
2023-02-02T06:50:49.693Z,97658.16
2023-02-02T06:56:12.682Z,97660.00
2023-02-02T07:01:34.181Z,97666.25
2023-02-02T07:06:55.003Z,97676.41
2023-02-02T07:12:15.865Z,97681.19
2023-02-02T07:17:37.234Z,97685.97
2023-02-02T07:22:58.288Z,97688.38
2023-02-02T07:28:19.481Z,97692.59
2023-02-02T07:33:42.356Z,97690.75
2023-02-02T07:39:05.181Z,97693.47
2023-02-02T07:44:26.219Z,97693.16
2023-02-02T07:49:47.254Z,97694.38
2023-02-02T07:55:14.852Z,97708.19
2023-02-02T08:00:35.986Z,97707.81
2023-02-02T08:05:57.589Z,97715.78
2023-02-02T08:11:20.216Z,97726.34
2023-02-02T08:16:41.104Z,97717.84
2023-02-02T08:22:02.878Z,97732.31
2023-02-02T08:27:23.904Z,97743.28
2023-02-02T08:32:44.730Z,97748.31
2023-02-02T08:38:07.727Z,97752.56
2023-02-02T08:43:29.266Z,97754.22
2023-02-02T08:48:50.527Z,97760.31
2023-02-02T08:54:11.529Z,97749.59
2023-02-02T08:59:32.315Z,97759.31
2023-02-02T09:04:53.625Z,97768.28
2023-02-02T09:10:14.577Z,97765.28
2023-02-02T09:15:36.066Z,97767.38
2023-02-02T09:21:05.600Z,97780.88
2023-02-02T09:26:27.989Z,97779.75
2023-02-02T09:31:49.407Z,97789.38
2023-02-02T09:37:10.496Z,97791.94
2023-02-02T09:42:34.726Z,97800.34
2023-02-02T09:47:58.632Z,97809.22
2023-02-02T09:53:55.215Z,97801.97
2023-02-02T09:59:24.634Z,97811.09
2023-02-02T10:04:49.163Z,97821.69
2023-02-02T10:10:11.154Z,97827.19
2023-02-02T10:15:33.674Z,97812.25
2023-02-02T10:20:56.803Z,97825.94
2023-02-02T10:26:20.511Z,97829.78
2023-02-02T10:31:49.526Z,97822.16
2023-02-02T10:37:16.840Z,97822.06
2023-02-02T10:43:26.230Z,97833.53
2023-02-02T10:48:48.229Z,97818.84
2023-02-02T10:54:29.941Z,97828.16
2023-02-02T11:00:06.066Z,97845.06
2023-02-02T11:05:46.881Z,97839.56
2023-02-02T11:11:26.770Z,97840.84
2023-02-02T11:16:47.736Z,97831.69
2023-02-02T11:22:23.495Z,97837.28
2023-02-02T11:27:45.007Z,97832.50
2023-02-02T11:33:25.509Z,97847.34
2023-02-02T11:38:46.424Z,97829.81
2023-02-02T11:44:15.004Z,97830.56
2023-02-02T11:49:39.330Z,97835.38
2023-02-02T11:55:01.973Z,97836.13
2023-02-02T12:00:27.247Z,97836.94
2023-02-02T12:05:50.109Z,97833.09
2023-02-02T12:11:11.284Z,97843.72
2023-02-02T12:16:40.602Z,97842.06
2023-02-02T12:22:16.433Z,97853.56
2023-02-02T12:28:00.632Z,97829.63
2023-02-02T12:33:33.764Z,97827.38
2023-02-02T12:39:01.759Z,97840.72
2023-02-02T12:44:32.003Z,97833.47
2023-02-02T12:49:55.519Z,97838.22
2023-02-02T12:55:34.995Z,97843.06
2023-02-02T13:01:02.019Z,97841.50
2023-02-02T13:06:29.377Z,97848.41
2023-02-02T13:11:56.196Z,97859.66
2023-02-02T13:17:34.350Z,97862.25
2023-02-02T13:22:57.836Z,97877.66
2023-02-02T13:28:33.655Z,97858.03
2023-02-02T13:34:18.916Z,97871.69
2023-02-02T13:39:43.098Z,97874.53
2023-02-02T13:45:48.470Z,97890.25
2023-02-02T13:51:51.222Z,97879.66
2023-02-02T13:57:37.244Z,97893.06
2023-02-02T14:02:59.806Z,97898.94
2023-02-02T14:08:21.621Z,97890.59
2023-02-02T14:14:05.471Z,97910.53
2023-02-02T14:19:35.342Z,97925.66
2023-02-02T14:24:57.347Z,97925.84
2023-02-02T14:30:23.358Z,97941.13
2023-02-02T14:35:44.298Z,97946.66
2023-02-02T14:41:42.309Z,97955.31
2023-02-02T14:47:03.365Z,97963.06
2023-02-02T14:52:24.486Z,97964.13
2023-02-02T14:57:45.331Z,97975.50
2023-02-02T15:03:36.252Z,97997.50
2023-02-02T15:09:28.494Z,98004.53
2023-02-02T15:15:08.915Z,98009.72
2023-02-02T15:20:32.599Z,98020.63
2023-02-02T15:26:08.780Z,98032.44
2023-02-02T15:31:46.900Z,98052.94
2023-02-02T15:37:08.621Z,98060.69
2023-02-02T15:42:54.887Z,98058.09
2023-02-02T15:48:21.995Z,98100.34
2023-02-02T15:53:44.110Z,98102.16
2023-02-02T15:59:19.893Z,98114.84
2023-02-02T16:04:42.712Z,98127.38
2023-02-02T16:10:05.073Z,98125.44
2023-02-02T16:15:27.729Z,98138.25
2023-02-02T16:20:48.956Z,98140.78
2023-02-02T16:26:12.095Z,98143.69
2023-02-02T16:31:34.745Z,98162.03
2023-02-02T16:37:15.385Z,98167.00
2023-02-02T16:42:37.117Z,98185.19
2023-02-02T16:48:11.422Z,98185.53
2023-02-02T16:53:32.269Z,98191.38
2023-02-02T16:58:58.286Z,98198.75
2023-02-02T17:04:30.355Z,98201.66
2023-02-02T17:09:51.851Z,98211.75
2023-02-02T17:15:16.571Z,98213.75
2023-02-02T17:20:39.202Z,98226.66
2023-02-02T17:26:00.848Z,98246.31
2023-02-02T17:31:22.169Z,98258.44
2023-02-02T17:36:43.787Z,98263.34
2023-02-02T17:42:05.980Z,98266.97
2023-02-02T17:47:27.084Z,98290.16
2023-02-02T17:52:49.699Z,98299.72
2023-02-02T17:58:13.240Z,98308.84
2023-02-02T18:03:35.486Z,98312.47
2023-02-02T18:08:57.092Z,98308.00
2023-02-02T18:14:18.032Z,98330.09
2023-02-02T18:19:39.490Z,98329.16
2023-02-02T18:25:00.540Z,98337.22
2023-02-02T18:30:21.525Z,98345.53
2023-02-02T18:35:45.969Z,98350.50
2023-02-02T18:41:06.724Z,98373.63
2023-02-02T18:46:27.938Z,98378.19
2023-02-02T18:51:49.164Z,98365.31
2023-02-02T18:57:14.959Z,98383.47
2023-02-02T19:02:36.466Z,98389.53
2023-02-02T19:07:59.174Z,98407.44
2023-02-02T19:13:21.797Z,98404.22
2023-02-02T19:18:43.024Z,98408.56
2023-02-02T19:24:09.893Z,98418.97
2023-02-02T19:29:32.560Z,98422.34
2023-02-02T19:34:54.626Z,98429.56
2023-02-02T19:40:22.988Z,98445.72
2023-02-02T19:45:44.535Z,98451.25
2023-02-02T19:51:42.041Z,98456.34
2023-02-02T19:57:21.474Z,98442.56
2023-02-02T20:02:50.667Z,98452.78
2023-02-02T20:08:14.397Z,98462.16
2023-02-02T20:13:38.907Z,98456.44
2023-02-02T20:18:59.815Z,98445.38
2023-02-02T20:24:25.380Z,98465.22
2023-02-02T20:29:48.057Z,98467.50
2023-02-02T20:35:37.209Z,98476.09
2023-02-02T20:40:59.279Z,98478.44
2023-02-02T20:46:20.377Z,98494.06
2023-02-02T20:51:41.593Z,98499.16
2023-02-02T20:57:02.547Z,98505.31
2023-02-02T21:02:24.622Z,98505.44
2023-02-02T21:07:45.721Z,98486.44
2023-02-02T21:13:06.846Z,98491.72
2023-02-02T21:18:27.530Z,98500.00
2023-02-02T21:23:48.541Z,98505.09
2023-02-02T21:29:09.677Z,98502.03
2023-02-02T21:34:30.817Z,98517.44
2023-02-02T21:39:53.270Z,98517.03
2023-02-02T21:45:21.426Z,98517.44
2023-02-02T21:50:42.552Z,98516.16
2023-02-02T21:56:21.158Z,98513.63
2023-02-02T22:01:42.513Z,98520.44
2023-02-02T22:07:14.400Z,98524.69
2023-02-02T22:12:40.662Z,98512.88
2023-02-02T22:18:10.706Z,98518.63
2023-02-02T22:23:31.879Z,98517.00
2023-02-02T22:28:52.905Z,98519.38
2023-02-02T22:34:13.777Z,98520.94
2023-02-02T22:39:38.621Z,98531.56
2023-02-02T22:44:59.281Z,98537.19
2023-02-02T22:50:22.790Z,98529.09
2023-02-02T22:55:43.801Z,98536.28
2023-02-02T23:01:05.001Z,98523.09
2023-02-02T23:06:25.610Z,98526.59
2023-02-02T23:11:48.088Z,98522.81
2023-02-02T23:17:10.444Z,98527.75
2023-02-02T23:22:31.547Z,98522.56
2023-02-02T23:27:52.541Z,98516.50
2023-02-02T23:33:13.427Z,98511.94
2023-02-02T23:38:34.275Z,98508.59
2023-02-02T23:43:55.086Z,98498.97
2023-02-02T23:49:15.952Z,98502.88
2023-02-02T23:54:36.625Z,98483.28
2023-02-02T23:59:57.501Z,98480.41
